createdAt,value
2023-10-26T00:00:27.162Z,33.90
2023-10-26T00:02:57.508Z,34.53
2023-10-26T00:05:25.896Z,36.38
2023-10-26T00:07:53.561Z,39.42
2023-10-26T00:10:21.142Z,41.78
2023-10-26T00:12:48.647Z,41.13
2023-10-26T00:15:16.894Z,39.92
2023-10-26T00:17:45.319Z,46.80
2023-10-26T00:20:13.285Z,44.78
2023-10-26T00:22:40.743Z,42.85
2023-10-26T00:25:08.707Z,47.22
2023-10-26T00:27:41.920Z,46.42
2023-10-26T00:30:11.092Z,43.83
2023-10-26T00:32:39.371Z,43.60
2023-10-26T00:35:07.644Z,43.38
2023-10-26T00:37:35.457Z,42.03
2023-10-26T00:40:04.291Z,40.90
2023-10-26T00:42:31.963Z,39.53
2023-10-26T00:45:00.400Z,40.70
2023-10-26T00:47:28.461Z,39.58
2023-10-26T00:49:57.029Z,42.85
2023-10-26T00:52:24.948Z,42.10
2023-10-26T00:54:54.087Z,38.88
2023-10-26T00:57:25.104Z,40.97
2023-10-26T00:59:54.017Z,41.28
2023-10-26T01:02:23.695Z,42.42
2023-10-26T01:04:51.385Z,43.75
2023-10-26T01:07:18.977Z,42.50
2023-10-26T01:09:46.906Z,42.95
2023-10-26T01:12:14.840Z,45.90
2023-10-26T01:14:44.060Z,42.80
2023-10-26T01:17:11.905Z,39.83
2023-10-26T01:19:47.903Z,43.13
2023-10-26T01:22:15.559Z,42.67
2023-10-26T01:24:43.777Z,44.17
2023-10-26T01:27:11.794Z,42.10
2023-10-26T01:29:39.336Z,38.30
2023-10-26T01:32:08.250Z,37.40
2023-10-26T01:34:36.388Z,36.22
2023-10-26T01:37:05.819Z,36.00
2023-10-26T01:39:34.143Z,34.65
2023-10-26T01:42:02.332Z,34.83
2023-10-26T01:44:30.538Z,31.85
2023-10-26T01:46:58.304Z,30.33
2023-10-26T01:49:25.868Z,31.80
2023-10-26T01:51:53.796Z,31.65
2023-10-26T01:54:21.307Z,31.95
2023-10-26T01:56:49.076Z,33.58
2023-10-26T01:59:16.790Z,31.83
2023-10-26T02:01:44.470Z,30.10
2023-10-26T02:04:12.146Z,32.20
2023-10-26T02:06:40.041Z,32.90
2023-10-26T02:09:07.809Z,36.28
2023-10-26T02:11:35.892Z,37.65
2023-10-26T02:14:03.466Z,37.90
2023-10-26T02:16:31.229Z,35.65
2023-10-26T02:18:58.825Z,37.00
2023-10-26T02:21:26.808Z,36.63
2023-10-26T02:23:54.607Z,33.40
2023-10-26T02:26:22.176Z,35.67
2023-10-26T02:28:50.258Z,37.20
2023-10-26T02:31:18.280Z,36.15
2023-10-26T02:33:48.798Z,35.00
2023-10-26T02:36:16.396Z,36.42
2023-10-26T02:38:44.225Z,36.38
2023-10-26T02:41:11.955Z,37.72
2023-10-26T02:43:41.308Z,35.85
2023-10-26T02:46:10.403Z,35.38
2023-10-26T02:48:39.040Z,36.08
2023-10-26T02:51:07.535Z,35.55
2023-10-26T02:53:35.172Z,36.63
2023-10-26T02:56:03.106Z,36.63
2023-10-26T02:58:31.090Z,39.10
2023-10-26T03:00:58.716Z,38.35
2023-10-26T03:03:26.902Z,38.40
2023-10-26T03:05:54.845Z,37.83
2023-10-26T03:08:22.465Z,36.03
2023-10-26T03:10:50.324Z,35.83
2023-10-26T03:13:18.004Z,35.75
2023-10-26T03:15:45.774Z,34.45
2023-10-26T03:18:13.567Z,36.20
2023-10-26T03:20:41.339Z,36.30
2023-10-26T03:23:08.840Z,37.70
2023-10-26T03:25:37.064Z,39.35
2023-10-26T03:28:05.146Z,43.17
2023-10-26T03:30:33.373Z,41.55
2023-10-26T03:33:01.842Z,44.65
2023-10-26T03:35:29.991Z,41.72
2023-10-26T03:37:57.825Z,39.88
2023-10-26T03:40:25.441Z,41.38
2023-10-26T03:42:53.307Z,40.42
2023-10-26T03:45:20.994Z,39.92
2023-10-26T03:47:48.734Z,33.17
2023-10-26T03:50:16.365Z,32.22
2023-10-26T03:52:45.426Z,32.53
2023-10-26T03:55:13.356Z,31.85
2023-10-26T03:57:40.970Z,32.75
2023-10-26T04:00:11.052Z,29.83
2023-10-26T04:02:41.894Z,30.83
2023-10-26T04:05:09.618Z,32.38
2023-10-26T04:07:39.622Z,32.80
2023-10-26T04:10:08.566Z,33.65
2023-10-26T04:12:37.011Z,33.35
2023-10-26T04:15:07.914Z,32.53
2023-10-26T04:17:35.616Z,34.97
2023-10-26T04:20:03.819Z,33.07
2023-10-26T04:22:32.089Z,34.72
2023-10-26T04:25:00.287Z,35.65
2023-10-26T04:27:28.274Z,35.88
2023-10-26T04:29:55.995Z,37.90
2023-10-26T04:32:23.870Z,36.78
2023-10-26T04:34:51.746Z,34.30
2023-10-26T04:37:19.250Z,32.35
2023-10-26T04:39:46.765Z,32.10
2023-10-26T04:42:14.551Z,31.20
2023-10-26T04:44:42.992Z,28.10
2023-10-26T04:47:11.285Z,28.63
2023-10-26T04:49:39.244Z,30.05
2023-10-26T04:52:06.839Z,29.13
2023-10-26T04:54:34.927Z,29.25
2023-10-26T04:57:03.090Z,29.83
2023-10-26T04:59:31.213Z,31.33
2023-10-26T05:01:58.842Z,31.40
2023-10-26T05:04:26.798Z,31.90
2023-10-26T05:06:54.899Z,30.77
2023-10-26T05:09:23.070Z,30.95
2023-10-26T05:11:50.652Z,30.25
2023-10-26T05:14:18.798Z,30.65
2023-10-26T05:16:46.831Z,29.65
2023-10-26T05:19:15.159Z,30.65
2023-10-26T05:21:43.345Z,29.27
2023-10-26T05:24:11.600Z,31.65
2023-10-26T05:26:39.678Z,30.90
2023-10-26T05:29:08.890Z,29.83
2023-10-26T05:31:39.999Z,33.65
2023-10-26T05:34:08.165Z,34.22
2023-10-26T05:36:35.828Z,33.50
2023-10-26T05:39:04.673Z,33.50
2023-10-26T05:41:33.015Z,34.17
2023-10-26T05:44:01.002Z,33.25
2023-10-26T05:46:28.736Z,33.42
2023-10-26T05:48:56.421Z,32.08
2023-10-26T05:51:24.314Z,32.75
2023-10-26T05:53:51.960Z,31.73
2023-10-26T05:56:19.964Z,29.30
2023-10-26T05:58:49.834Z,28.80
2023-10-26T06:01:18.005Z,29.45
2023-10-26T06:03:46.426Z,29.15
2023-10-26T06:06:14.435Z,28.55
2023-10-26T06:08:42.211Z,27.55
2023-10-26T06:11:10.765Z,28.42
2023-10-26T06:13:42.098Z,28.13
2023-10-26T06:16:14.406Z,28.15
2023-10-26T06:18:42.217Z,25.20
2023-10-26T06:21:09.997Z,26.20
2023-10-26T06:23:37.679Z,26.38
2023-10-26T06:26:05.883Z,27.13
2023-10-26T06:28:33.441Z,27.80
2023-10-26T06:31:17.847Z,27.67
2023-10-26T06:33:45.595Z,26.23
2023-10-26T06:36:13.573Z,28.02
2023-10-26T06:38:42.169Z,27.30
2023-10-26T06:41:11.129Z,27.75
2023-10-26T06:43:39.400Z,25.70
2023-10-26T06:46:07.262Z,24.80
2023-10-26T06:48:35.205Z,23.95
2023-10-26T06:51:03.788Z,23.60
2023-10-26T06:53:31.607Z,24.25
2023-10-26T06:55:59.798Z,24.05
2023-10-26T06:58:27.611Z,23.63
2023-10-26T07:00:55.655Z,19.77
2023-10-26T07:03:23.506Z,22.77
2023-10-26T07:05:51.560Z,22.85
2023-10-26T07:08:19.472Z,23.42
2023-10-26T07:10:46.968Z,24.20
2023-10-26T07:13:14.782Z,26.42
2023-10-26T07:15:42.460Z,26.88
2023-10-26T07:18:10.283Z,25.23
2023-10-26T07:20:39.223Z,24.67
2023-10-26T07:23:06.704Z,25.58
2023-10-26T07:25:37.331Z,24.25
2023-10-26T07:28:05.124Z,24.85
2023-10-26T07:30:32.844Z,25.80
2023-10-26T07:33:00.816Z,19.52
2023-10-26T07:35:29.414Z,22.63
2023-10-26T07:38:09.324Z,22.38
2023-10-26T07:40:51.985Z,23.60
2023-10-26T07:43:19.995Z,23.88
2023-10-26T07:45:49.239Z,22.30
2023-10-26T07:48:17.015Z,21.52
2023-10-26T07:50:45.429Z,21.27
2023-10-26T07:53:13.297Z,20.73
2023-10-26T07:55:41.121Z,20.30
2023-10-26T07:58:09.278Z,20.45
2023-10-26T08:00:38.843Z,19.95
2023-10-26T08:03:06.827Z,19.58
2023-10-26T08:05:34.595Z,19.48
2023-10-26T08:08:02.893Z,20.63
2023-10-26T08:10:33.770Z,20.95
2023-10-26T08:13:01.417Z,20.48
2023-10-26T08:16:06.009Z,19.77
2023-10-26T08:18:16.721Z,19.83
2023-10-26T08:20:51.262Z,19.42
2023-10-26T08:23:18.956Z,18.90
2023-10-26T08:25:48.982Z,17.98
2023-10-26T08:28:17.200Z,18.23
2023-10-26T08:30:45.281Z,17.42
2023-10-26T08:33:13.207Z,17.02
2023-10-26T08:35:43.029Z,12.80
2023-10-26T08:38:10.601Z,11.55
2023-10-26T08:40:38.750Z,10.60
2023-10-26T08:43:07.201Z,10.90
2023-10-26T08:45:35.790Z,10.90
2023-10-26T08:48:03.771Z,11.27
2023-10-26T08:50:31.617Z,11.15
2023-10-26T08:53:00.636Z,10.52
2023-10-26T08:55:28.402Z,10.23
2023-10-26T08:58:00.054Z,9.77
2023-10-26T09:00:31.645Z,10.57
2023-10-26T09:02:59.780Z,9.13
2023-10-26T09:05:27.750Z,10.48
2023-10-26T09:07:55.358Z,11.65
2023-10-26T09:10:33.033Z,12.70
2023-10-26T09:13:01.873Z,12.07
2023-10-26T09:15:33.004Z,12.25
2023-10-26T09:18:10.486Z,11.32
2023-10-26T09:20:39.714Z,8.82
2023-10-26T09:23:07.517Z,8.20
2023-10-26T09:25:35.245Z,7.78
2023-10-26T09:28:04.063Z,8.20
2023-10-26T09:30:33.188Z,6.93
2023-10-26T09:33:01.648Z,6.70
2023-10-26T09:35:30.549Z,6.78
2023-10-26T09:37:59.123Z,6.55
2023-10-26T09:40:28.314Z,6.50
2023-10-26T09:42:59.769Z,6.70
2023-10-26T09:45:28.018Z,5.82
2023-10-26T09:47:55.891Z,6.30
2023-10-26T09:50:23.553Z,6.40
2023-10-26T09:52:51.401Z,6.22
2023-10-26T09:55:22.481Z,5.22
2023-10-26T09:57:57.696Z,5.45
2023-10-26T10:00:33.621Z,4.93
2023-10-26T10:03:12.256Z,4.70
2023-10-26T10:05:41.170Z,4.15
2023-10-26T10:08:09.300Z,4.40
2023-10-26T10:10:37.079Z,4.15
2023-10-26T10:13:05.000Z,4.70
2023-10-26T10:15:42.373Z,4.50
2023-10-26T10:18:12.312Z,4.60
2023-10-26T10:20:42.075Z,4.70
2023-10-26T10:23:10.368Z,4.70
2023-10-26T10:26:02.571Z,4.10
2023-10-26T10:28:42.698Z,3.70
2023-10-26T10:31:11.340Z,3.38
2023-10-26T10:33:41.737Z,2.70
2023-10-26T10:36:10.067Z,2.50
2023-10-26T10:38:37.972Z,2.22
2023-10-26T10:41:11.711Z,2.10
2023-10-26T10:43:47.324Z,1.90
2023-10-26T10:46:15.386Z,1.80
2023-10-26T10:49:01.890Z,1.75
2023-10-26T10:51:34.081Z,1.67
2023-10-26T10:54:06.047Z,2.00
2023-10-26T10:56:42.759Z,1.77
2023-10-26T10:59:19.876Z,1.65
2023-10-26T11:01:48.084Z,1.55
2023-10-26T11:04:16.171Z,1.35
2023-10-26T11:06:49.025Z,1.30
2023-10-26T11:09:30.932Z,1.40
2023-10-26T11:12:09.376Z,1.63
2023-10-26T11:14:37.320Z,1.80
2023-10-26T11:17:06.284Z,1.52
2023-10-26T11:19:38.196Z,1.52
2023-10-26T11:22:06.343Z,1.40
2023-10-26T11:24:34.389Z,1.15
2023-10-26T11:27:08.934Z,1.20
2023-10-26T11:29:36.751Z,1.67
2023-10-26T11:32:04.719Z,1.50
2023-10-26T11:34:32.917Z,1.60
2023-10-26T11:37:00.661Z,1.58
2023-10-26T11:39:28.702Z,1.50
2023-10-26T11:41:58.196Z,1.60
2023-10-26T11:44:27.049Z,1.50
2023-10-26T11:46:58.947Z,1.23
2023-10-26T11:49:39.404Z,1.35
2023-10-26T11:52:08.082Z,1.30
2023-10-26T11:54:35.718Z,1.55
2023-10-26T11:57:03.736Z,1.40
2023-10-26T11:59:31.266Z,1.40
2023-10-26T12:01:59.310Z,1.42
2023-10-26T12:04:27.534Z,1.40
2023-10-26T12:06:55.542Z,1.38
2023-10-26T12:09:23.547Z,1.52
2023-10-26T12:11:52.349Z,1.60
2023-10-26T12:14:20.195Z,1.58
2023-10-26T12:16:48.712Z,1.25
2023-10-26T12:19:16.678Z,1.42
2023-10-26T12:21:44.620Z,1.30
2023-10-26T12:24:12.218Z,1.25
2023-10-26T12:26:39.796Z,1.10
2023-10-26T12:29:08.816Z,1.40
2023-10-26T12:31:36.761Z,1.60
2023-10-26T12:34:04.503Z,1.10
2023-10-26T12:36:35.712Z,1.20
2023-10-26T12:39:04.224Z,1.27
2023-10-26T12:41:31.864Z,1.08
2023-10-26T12:43:59.762Z,1.30
2023-10-26T12:46:27.564Z,1.13
2023-10-26T12:48:55.297Z,1.40
2023-10-26T12:51:23.426Z,1.10
2023-10-26T12:53:51.155Z,1.50
2023-10-26T12:56:18.923Z,1.30
2023-10-26T12:58:46.553Z,1.30
2023-10-26T13:01:14.581Z,1.50
2023-10-26T13:03:42.303Z,1.48
2023-10-26T13:06:09.938Z,1.20
2023-10-26T13:08:37.625Z,1.40
2023-10-26T13:11:05.299Z,1.50
2023-10-26T13:13:32.929Z,1.40
2023-10-26T13:16:00.713Z,1.50
2023-10-26T13:18:28.424Z,1.30
2023-10-26T13:20:56.367Z,1.33
2023-10-26T13:23:24.076Z,1.40
2023-10-26T13:25:51.702Z,1.75
2023-10-26T13:28:20.411Z,1.48
2023-10-26T13:30:48.459Z,1.92
2023-10-26T13:33:16.758Z,1.40
2023-10-26T13:35:45.096Z,1.50
2023-10-26T13:38:16.068Z,1.50
2023-10-26T13:40:44.565Z,1.58
2023-10-26T13:43:13.140Z,1.40
2023-10-26T13:45:40.606Z,1.42
2023-10-26T13:48:08.501Z,1.33
2023-10-26T13:50:36.309Z,1.35
2023-10-26T13:53:04.071Z,1.40
2023-10-26T13:55:35.224Z,1.30
2023-10-26T13:58:02.842Z,1.40
2023-10-26T14:00:30.793Z,1.25
2023-10-26T14:02:58.409Z,1.35
2023-10-26T14:05:30.763Z,1.40
2023-10-26T14:07:59.523Z,1.30
2023-10-26T14:10:27.627Z,1.40
2023-10-26T14:12:55.167Z,1.45
2023-10-26T14:15:23.140Z,1.40
2023-10-26T14:17:50.684Z,1.45
2023-10-26T14:20:18.485Z,1.70
2023-10-26T14:22:46.344Z,1.50
2023-10-26T14:25:14.254Z,1.80
2023-10-26T14:27:42.435Z,2.33
2023-10-26T14:30:10.479Z,2.20
2023-10-26T14:32:38.588Z,2.60
2023-10-26T14:35:06.581Z,2.25
2023-10-26T14:37:34.315Z,2.10
2023-10-26T14:40:01.972Z,1.80
2023-10-26T14:42:29.728Z,2.20
2023-10-26T14:44:58.410Z,1.70
2023-10-26T14:47:29.773Z,1.60
2023-10-26T14:49:57.747Z,1.70
2023-10-26T14:52:25.404Z,1.70
2023-10-26T14:54:53.638Z,2.10
2023-10-26T14:57:21.441Z,1.83
2023-10-26T14:59:49.854Z,1.95
2023-10-26T15:02:17.805Z,2.20
2023-10-26T15:04:45.728Z,2.00
2023-10-26T15:07:13.710Z,1.75
2023-10-26T15:10:22.767Z,2.28
2023-10-26T15:12:29.624Z,2.03
2023-10-26T15:14:57.557Z,2.55
2023-10-26T15:17:26.756Z,2.65
2023-10-26T15:19:54.421Z,2.70
2023-10-26T15:22:23.189Z,2.30
2023-10-26T15:24:50.921Z,2.78
2023-10-26T15:27:18.651Z,2.58
2023-10-26T15:29:46.973Z,2.30
2023-10-26T15:32:19.550Z,2.60
2023-10-26T15:34:47.965Z,2.70
2023-10-26T15:37:16.457Z,2.38
2023-10-26T15:39:44.950Z,2.63
2023-10-26T15:42:14.831Z,2.53
2023-10-26T15:44:46.622Z,2.90
2023-10-26T15:47:15.943Z,2.63
2023-10-26T15:49:45.495Z,2.80
2023-10-26T15:52:13.280Z,2.45
2023-10-26T15:54:41.372Z,2.40
2023-10-26T15:57:09.487Z,2.80
2023-10-26T15:59:37.051Z,2.90
2023-10-26T16:02:05.900Z,2.90
2023-10-26T16:04:33.726Z,2.85
2023-10-26T16:07:01.541Z,2.75
2023-10-26T16:09:31.072Z,2.90
2023-10-26T16:11:58.952Z,2.90
2023-10-26T16:14:26.696Z,2.58
2023-10-26T16:16:54.498Z,2.80
2023-10-26T16:19:28.170Z,2.65
2023-10-26T16:21:56.199Z,2.85
2023-10-26T16:24:25.197Z,2.63
2023-10-26T16:26:53.342Z,3.40
2023-10-26T16:29:20.872Z,3.17
2023-10-26T16:31:48.909Z,2.70
2023-10-26T16:34:16.707Z,3.20
2023-10-26T16:36:44.420Z,2.83
2023-10-26T16:39:12.625Z,3.10
2023-10-26T16:41:41.103Z,3.17
2023-10-26T16:44:09.143Z,3.10
2023-10-26T16:46:37.568Z,3.10
2023-10-26T16:49:05.433Z,3.13
2023-10-26T16:51:33.035Z,3.28
2023-10-26T16:54:01.342Z,3.20
2023-10-26T16:56:30.377Z,3.50
2023-10-26T16:58:58.440Z,3.38
2023-10-26T17:01:26.598Z,3.40
2023-10-26T17:03:54.531Z,3.60
2023-10-26T17:06:22.182Z,3.78
2023-10-26T17:08:50.225Z,3.60
2023-10-26T17:11:18.409Z,3.88
2023-10-26T17:13:46.012Z,4.20
2023-10-26T17:16:14.256Z,3.97
2023-10-26T17:18:41.939Z,4.15
2023-10-26T17:21:09.630Z,4.05
2023-10-26T17:23:37.393Z,3.42
2023-10-26T17:26:04.977Z,3.95
2023-10-26T17:28:32.843Z,3.90
2023-10-26T17:31:07.197Z,4.00
2023-10-26T17:33:36.042Z,3.95
2023-10-26T17:36:04.739Z,3.80
2023-10-26T17:38:33.619Z,3.65
2023-10-26T17:41:14.916Z,3.65
2023-10-26T17:43:42.962Z,4.47
2023-10-26T17:46:10.886Z,4.20
2023-10-26T17:48:40.175Z,3.80
2023-10-26T17:51:10.330Z,3.83
2023-10-26T17:53:41.786Z,4.13
2023-10-26T17:56:13.631Z,3.72
2023-10-26T17:58:41.894Z,3.92
2023-10-26T18:01:15.041Z,4.22
2023-10-26T18:03:43.145Z,4.38
2023-10-26T18:06:11.103Z,4.13
2023-10-26T18:08:42.676Z,4.00
2023-10-26T18:11:10.502Z,4.10
2023-10-26T18:13:40.487Z,3.85
2023-10-26T18:16:11.616Z,3.92
2023-10-26T18:18:40.423Z,3.92
2023-10-26T18:21:09.059Z,4.15
2023-10-26T18:23:37.915Z,3.97
2023-10-26T18:26:06.741Z,3.72
2023-10-26T18:28:34.711Z,3.78
2023-10-26T18:31:13.492Z,4.28
2023-10-26T18:33:42.189Z,4.05
2023-10-26T18:36:13.046Z,3.97
2023-10-26T18:38:41.956Z,4.07
2023-10-26T18:41:10.614Z,5.00
2023-10-26T18:43:38.477Z,4.50
2023-10-26T18:46:06.950Z,4.50
2023-10-26T18:48:36.462Z,4.35
2023-10-26T18:51:05.018Z,4.38
2023-10-26T18:53:32.932Z,4.03
2023-10-26T18:56:01.661Z,4.38
2023-10-26T18:58:29.168Z,4.63
2023-10-26T19:00:57.379Z,4.38
2023-10-26T19:03:25.926Z,4.53
2023-10-26T19:05:53.906Z,4.25
2023-10-26T19:08:21.976Z,4.15
2023-10-26T19:10:50.040Z,4.43
2023-10-26T19:13:18.281Z,4.30
2023-10-26T19:15:46.453Z,4.43
2023-10-26T19:18:14.230Z,4.22
2023-10-26T19:20:44.569Z,4.20
2023-10-26T19:23:13.221Z,3.83
2023-10-26T19:25:43.048Z,4.53
2023-10-26T19:28:10.811Z,3.90
2023-10-26T19:30:38.484Z,4.13
2023-10-26T19:33:06.375Z,4.22
2023-10-26T19:35:34.183Z,4.15
2023-10-26T19:38:03.079Z,4.13
2023-10-26T19:40:30.534Z,4.00
2023-10-26T19:42:58.142Z,3.60
2023-10-26T19:45:25.987Z,3.70
2023-10-26T19:47:53.911Z,3.15
2023-10-26T19:50:22.708Z,3.83
2023-10-26T19:52:51.273Z,3.75
2023-10-26T19:55:19.209Z,3.50
2023-10-26T19:57:47.350Z,3.50
2023-10-26T20:00:18.307Z,3.33
2023-10-26T20:02:46.118Z,3.67
2023-10-26T20:05:16.850Z,3.78
2023-10-26T20:07:45.045Z,3.60
2023-10-26T20:10:12.985Z,4.20
2023-10-26T20:12:40.726Z,3.60
2023-10-26T20:15:09.814Z,3.88
2023-10-26T20:17:37.379Z,4.15
2023-10-26T20:20:08.184Z,3.90
2023-10-26T20:22:36.396Z,4.00
2023-10-26T20:25:05.640Z,3.67
2023-10-26T20:27:33.690Z,4.03
2023-10-26T20:30:01.909Z,3.90
2023-10-26T20:32:29.431Z,3.67
2023-10-26T20:34:57.586Z,4.15
2023-10-26T20:37:25.641Z,4.90
2023-10-26T20:39:53.649Z,6.00
2023-10-26T20:42:22.223Z,3.97
2023-10-26T20:44:50.186Z,4.60
2023-10-26T20:47:18.123Z,4.40
2023-10-26T20:49:46.521Z,3.90
2023-10-26T20:52:14.220Z,4.85
2023-10-26T20:54:42.166Z,4.28
2023-10-26T20:57:10.128Z,4.45
2023-10-26T20:59:40.283Z,4.22
2023-10-26T21:02:07.897Z,4.43
2023-10-26T21:04:35.828Z,4.35
2023-10-26T21:07:03.656Z,4.80
2023-10-26T21:09:31.399Z,5.05
2023-10-26T21:11:58.878Z,4.90
2023-10-26T21:14:26.533Z,4.95
2023-10-26T21:16:54.261Z,5.28
2023-10-26T21:19:22.061Z,4.82
2023-10-26T21:21:49.774Z,4.80
2023-10-26T21:24:17.950Z,5.30
2023-10-26T21:26:45.660Z,5.00
2023-10-26T21:29:13.246Z,5.55
2023-10-26T21:31:40.948Z,5.88
2023-10-26T21:34:08.757Z,5.15
2023-10-26T21:36:36.534Z,6.18
2023-10-26T21:39:04.545Z,5.30
2023-10-26T21:41:35.341Z,6.00
2023-10-26T21:44:03.374Z,5.38
2023-10-26T21:46:31.497Z,5.47
2023-10-26T21:48:59.444Z,5.78
2023-10-26T21:51:28.549Z,5.82
2023-10-26T21:53:56.175Z,5.88
2023-10-26T21:56:23.873Z,6.78
2023-10-26T21:58:51.746Z,5.75
2023-10-26T22:01:19.718Z,6.30
2023-10-26T22:03:56.651Z,6.30
2023-10-26T22:06:29.496Z,6.65
2023-10-26T22:08:57.206Z,6.85
2023-10-26T22:11:25.726Z,6.47
2023-10-26T22:13:53.323Z,6.70
2023-10-26T22:16:20.952Z,6.82
2023-10-26T22:18:49.346Z,6.82
2023-10-26T22:21:16.880Z,6.35
2023-10-26T22:23:44.739Z,6.35
2023-10-26T22:26:12.662Z,5.78
2023-10-26T22:28:40.525Z,5.90
2023-10-26T22:31:09.565Z,5.80
2023-10-26T22:33:38.723Z,7.30
2023-10-26T22:36:06.636Z,6.60
2023-10-26T22:38:34.637Z,7.00
2023-10-26T22:41:04.823Z,6.50
2023-10-26T22:43:32.585Z,6.25
2023-10-26T22:46:00.441Z,5.68
2023-10-26T22:48:28.353Z,5.72
2023-10-26T22:50:59.455Z,5.47
2023-10-26T22:53:27.371Z,5.68
2023-10-26T22:55:54.996Z,5.07
2023-10-26T22:58:22.608Z,4.72
2023-10-26T23:00:50.473Z,4.13
2023-10-26T23:03:18.354Z,4.10
2023-10-26T23:05:46.047Z,4.20
2023-10-26T23:08:15.508Z,3.78
2023-10-26T23:10:43.627Z,3.50
2023-10-26T23:13:11.841Z,3.30
2023-10-26T23:15:39.928Z,2.67
2023-10-26T23:18:08.724Z,2.72
2023-10-26T23:20:36.462Z,3.05
2023-10-26T23:23:04.407Z,3.70
2023-10-26T23:25:32.077Z,4.40
2023-10-26T23:27:59.835Z,4.22
2023-10-26T23:30:27.550Z,4.70
2023-10-26T23:32:55.837Z,4.75
2023-10-26T23:35:24.039Z,4.18
2023-10-26T23:37:51.747Z,3.30
2023-10-26T23:40:19.983Z,2.60
2023-10-26T23:42:47.676Z,3.30
2023-10-26T23:45:15.644Z,2.90
2023-10-26T23:47:43.797Z,2.75
2023-10-26T23:50:11.780Z,2.40
2023-10-26T23:52:39.549Z,2.30
2023-10-26T23:55:10.201Z,2.50
2023-10-26T23:57:37.889Z,2.58
